Time,TemperatureF,DewpointF,PressureIn,WindDirection,WindDirectionDegrees,WindSpeedMPH,WindSpeedGustMPH,Humidity,HourlyPrecipIn,Conditions,Clouds,dailyrainin,SolarRadiationWatts/m^2,SoftwareType,DateUTC
2013-08-04 00:02:00,75.2,73.0,29.98,NNW,336,0.0,0.0,91,0.00,,,0.00,0,weatherlink.com 1.10,2013-08-04 04:02:00,
2013-08-04 00:17:00,74.6,72.0,29.98,NNW,336,0.0,0.0,92,0.00,,,0.00,0,weatherlink.com 1.10,2013-08-04 04:17:00,
2013-08-04 00:32:00,74.6,72.0,29.98,NNW,336,0.0,0.0,92,0.00,,,0.00,0,weatherlink.com 1.10,2013-08-04 04:32:00,
2013-08-04 00:47:00,74.5,72.0,29.98,NNW,336,0.0,0.0,93,0.00,,,0.00,0,weatherlink.com 1.10,2013-08-04 04:47:00,
2013-08-04 01:02:00,73.9,72.0,29.97,NNW,336,0.0,0.0,94,0.00,,,0.00,0,weatherlink.com 1.10,2013-08-04 05:02:00,
2013-08-04 01:18:00,73.7,72.0,29.96,NNW,336,0.0,0.0,94,0.00,,,0.00,0,weatherlink.com 1.10,2013-08-04 05:18:00,
2013-08-04 01:33:00,73.5,72.0,29.96,NNW,336,0.0,0.0,95,0.00,,,0.00,0,weatherlink.com 1.10,2013-08-04 05:33:00,
2013-08-04 01:48:00,73.5,72.0,29.96,NNW,336,0.0,0.0,95,0.00,,,0.00,0,weatherlink.com 1.10,2013-08-04 05:48:00,
2013-08-04 02:03:00,73.3,72.0,29.96,NNW,336,0.0,0.0,95,0.00,,,0.00,0,weatherlink.com 1.10,2013-08-04 06:03:00,
2013-08-04 02:18:00,73.1,72.0,29.96,NNW,336,0.0,0.0,96,0.00,,,0.00,0,weatherlink.com 1.10,2013-08-04 06:18:00,
2013-08-04 02:33:00,72.9,72.0,29.96,NNW,336,0.0,0.0,96,0.00,,,0.00,0,weatherlink.com 1.10,2013-08-04 06:33:00,
2013-08-04 02:48:00,72.8,72.0,29.96,NNW,336,0.0,0.0,96,0.00,,,0.00,0,weatherlink.com 1.10,2013-08-04 06:48:00,
2013-08-04 03:03:00,73.0,72.0,29.95,NNW,336,0.0,0.0,96,0.00,,,0.00,0,weatherlink.com 1.10,2013-08-04 07:03:00,
2013-08-04 03:18:00,73.5,72.0,29.95,NNW,336,0.0,1.0,95,0.00,,,0.00,0,weatherlink.com 1.10,2013-08-04 07:18:00,
2013-08-04 03:33:00,73.7,72.0,29.95,NNW,336,0.0,1.0,94,0.00,,,0.00,0,weatherlink.com 1.10,2013-08-04 07:33:00,
2013-08-04 03:48:00,73.2,71.0,29.95,NNW,336,0.0,0.0,94,0.00,,,0.00,0,weatherlink.com 1.10,2013-08-04 07:48:00,
2013-08-04 04:03:00,73.1,72.0,29.95,NNW,336,0.0,0.0,95,0.00,,,0.00,0,weatherlink.com 1.10,2013-08-04 08:03:00,
2013-08-04 04:17:00,73.1,72.0,29.95,NNW,336,0.0,0.0,95,0.00,,,0.00,0,weatherlink.com 1.10,2013-08-04 08:17:00,
2013-08-04 04:33:00,73.1,72.0,29.95,NNW,336,0.0,1.0,95,0.00,,,0.00,0,weatherlink.com 1.10,2013-08-04 08:33:00,
2013-08-04 04:48:00,73.6,72.0,29.95,NNW,335,0.0,2.0,95,0.00,,,0.00,0,weatherlink.com 1.10,2013-08-04 08:48:00,
2013-08-04 05:03:00,74.0,72.0,29.95,NW,319,0.0,1.0,93,0.00,,,0.00,0,weatherlink.com 1.10,2013-08-04 09:03:00,
2013-08-04 05:18:00,74.1,72.0,29.95,NW,319,0.0,3.0,93,0.00,,,0.00,0,weatherlink.com 1.10,2013-08-04 09:18:00,
2013-08-04 05:33:00,73.4,72.0,29.95,NW,319,0.0,0.0,94,0.00,,,0.00,0,weatherlink.com 1.10,2013-08-04 09:33:00,
2013-08-04 05:48:00,73.5,72.0,29.95,NW,319,0.0,0.0,94,0.00,,,0.00,0,weatherlink.com 1.10,2013-08-04 09:48:00,
2013-08-04 06:03:00,73.5,72.0,29.95,NW,319,0.0,0.0,94,0.00,,,0.00,0,weatherlink.com 1.10,2013-08-04 10:03:00,
2013-08-04 06:18:00,73.7,72.0,29.95,NW,319,0.0,0.0,94,0.00,,,0.00,0,weatherlink.com 1.10,2013-08-04 10:18:00,
2013-08-04 06:33:00,73.6,72.0,29.95,NW,319,0.0,0.0,95,0.00,,,0.00,0,weatherlink.com 1.10,2013-08-04 10:33:00,
2013-08-04 06:48:00,73.5,72.0,29.95,NW,319,0.0,0.0,95,0.00,,,0.00,0,weatherlink.com 1.10,2013-08-04 10:48:00,
2013-08-04 07:03:00,73.6,72.0,29.96,NW,319,0.0,0.0,95,0.00,,,0.00,11,weatherlink.com 1.10,2013-08-04 11:03:00,
2013-08-04 07:18:00,74.0,73.0,29.96,NW,319,0.0,0.0,95,0.00,,,0.00,23,weatherlink.com 1.10,2013-08-04 11:18:00,
2013-08-04 07:33:00,74.2,73.0,29.96,NW,319,0.0,0.0,95,0.00,,,0.00,42,weatherlink.com 1.10,2013-08-04 11:33:00,
2013-08-04 07:48:00,74.8,73.0,29.96,NW,319,0.0,0.0,95,0.00,,,0.00,51,weatherlink.com 1.10,2013-08-04 11:48:00,
2013-08-04 08:03:00,75.2,73.0,29.95,NW,319,0.0,0.0,94,0.00,,,0.00,72,weatherlink.com 1.10,2013-08-04 12:03:00,
2013-08-04 08:18:00,76.1,74.0,29.95,NW,319,0.0,0.0,93,0.00,,,0.00,141,weatherlink.com 1.10,2013-08-04 12:18:00,
2013-08-04 08:33:00,77.4,75.0,29.95,NNW,331,0.0,1.0,91,0.00,,,0.00,193,weatherlink.com 1.10,2013-08-04 12:33:00,
2013-08-04 08:48:00,78.7,76.0,29.96,NW,319,0.0,4.0,90,0.00,,,0.00,301,weatherlink.com 1.10,2013-08-04 12:48:00,
2013-08-04 09:03:00,79.6,76.0,29.96,NW,325,0.0,3.0,87,0.00,,,0.00,251,weatherlink.com 1.10,2013-08-04 13:03:00,
2013-08-04 09:18:00,80.9,76.0,29.96,NW,325,0.0,1.0,86,0.00,,,0.00,369,weatherlink.com 1.10,2013-08-04 13:18:00,
2013-08-04 09:33:00,81.3,76.0,29.96,NNE,19,0.0,6.0,84,0.00,,,0.00,406,weatherlink.com 1.10,2013-08-04 13:33:00,
2013-08-04 09:48:00,82.3,77.0,29.96,North,355,0.0,6.0,83,0.00,,,0.00,476,weatherlink.com 1.10,2013-08-04 13:48:00,
2013-08-04 10:03:00,82.7,76.0,29.96,North,355,0.0,6.0,80,0.00,,,0.00,390,weatherlink.com 1.10,2013-08-04 14:03:00,
2013-08-04 10:18:00,83.4,77.0,29.96,NW,315,0.0,5.0,81,0.00,,,0.00,520,weatherlink.com 1.10,2013-08-04 14:18:00,
2013-08-04 10:34:00,84.1,77.0,29.96,NNE,13,0.0,3.0,79,0.00,,,0.00,568,weatherlink.com 1.10,2013-08-04 14:34:00,
2013-08-04 10:49:00,84.4,77.0,29.97,NNE,32,0.0,7.0,79,0.00,,,0.00,601,weatherlink.com 1.10,2013-08-04 14:49:00,
2013-08-04 11:04:00,85.0,77.0,29.97,NE,34,0.0,5.0,78,0.00,,,0.00,617,weatherlink.com 1.10,2013-08-04 15:04:00,
2013-08-04 11:18:00,86.1,79.0,29.97,WNW,282,0.0,4.0,78,0.00,,,0.00,686,weatherlink.com 1.10,2013-08-04 15:18:00,
2013-08-04 11:34:00,86.8,77.0,29.97,North,5,0.0,6.0,73,0.00,,,0.00,759,weatherlink.com 1.10,2013-08-04 15:34:00,
2013-08-04 11:49:00,85.9,78.0,29.96,NW,322,0.0,1.0,76,0.00,,,0.00,580,weatherlink.com 1.10,2013-08-04 15:49:00,
2013-08-04 12:04:00,86.4,77.0,29.96,NW,321,0.0,2.0,74,0.00,,,0.00,555,weatherlink.com 1.10,2013-08-04 16:04:00,
2013-08-04 12:19:00,85.6,76.0,29.96,NW,311,0.0,1.0,74,0.00,,,0.00,438,weatherlink.com 1.10,2013-08-04 16:19:00,
2013-08-04 12:34:00,85.7,77.0,29.96,NW,311,0.0,1.0,76,0.00,,,0.00,396,weatherlink.com 1.10,2013-08-04 16:34:00,
2013-08-04 12:49:00,87.1,78.0,29.96,North,351,0.0,1.0,73,0.00,,,0.00,594,weatherlink.com 1.10,2013-08-04 16:49:00,
2013-08-04 13:04:00,88.1,78.0,29.96,North,351,1.0,1.0,72,0.00,,,0.00,875,weatherlink.com 1.10,2013-08-04 17:04:00,
2013-08-04 13:19:00,89.0,78.0,29.95,North,350,0.0,3.0,70,0.00,,,0.00,856,weatherlink.com 1.10,2013-08-04 17:19:00,
2013-08-04 13:34:00,88.2,76.0,29.95,ENE,69,0.0,5.0,68,0.00,,,0.00,747,weatherlink.com 1.10,2013-08-04 17:34:00,
2013-08-04 13:49:00,88.4,75.0,29.95,East,91,2.0,5.0,65,0.00,,,0.00,842,weatherlink.com 1.10,2013-08-04 17:49:00,
2013-08-04 14:04:00,88.9,76.0,29.94,NE,38,0.0,3.0,65,0.00,,,0.00,278,weatherlink.com 1.10,2013-08-04 18:04:00,
2013-08-04 14:19:00,89.7,75.0,29.94,NNE,28,0.0,3.0,62,0.00,,,0.00,329,weatherlink.com 1.10,2013-08-04 18:19:00,
2013-08-04 14:34:00,90.3,77.0,29.94,NNE,19,0.0,3.0,66,0.00,,,0.00,403,weatherlink.com 1.10,2013-08-04 18:34:00,
2013-08-04 14:49:00,90.6,74.0,29.93,NE,38,0.0,4.0,59,0.00,,,0.00,490,weatherlink.com 1.10,2013-08-04 18:49:00,
2013-08-04 15:04:00,89.8,77.0,29.92,NNE,26,0.0,1.0,67,0.00,,,0.00,793,weatherlink.com 1.10,2013-08-04 19:04:00,
2013-08-04 15:19:00,89.7,75.0,29.92,ENE,73,0.0,2.0,63,0.00,,,0.00,139,weatherlink.com 1.10,2013-08-04 19:19:00,
2013-08-04 15:34:00,87.1,76.0,29.92,North,5,0.0,2.0,70,0.00,,,0.00,137,weatherlink.com 1.10,2013-08-04 19:34:00,
2013-08-04 15:49:00,90.2,78.0,29.92,NW,319,0.0,4.0,67,0.00,,,0.00,770,weatherlink.com 1.10,2013-08-04 19:49:00,
2013-08-04 16:04:00,90.8,78.0,29.92,NNW,340,0.0,3.0,67,0.00,,,0.00,742,weatherlink.com 1.10,2013-08-04 20:04:00,
2013-08-04 16:19:00,89.2,78.0,29.91,NW,314,1.0,1.0,69,0.00,,,0.00,102,weatherlink.com 1.10,2013-08-04 20:19:00,
2013-08-04 16:34:00,87.4,77.0,29.91,NNE,20,0.0,0.0,72,0.00,,,0.00,153,weatherlink.com 1.10,2013-08-04 20:34:00,
2013-08-04 16:49:00,87.3,77.0,29.91,NNE,21,0.0,1.0,72,0.00,,,0.00,151,weatherlink.com 1.10,2013-08-04 20:49:00,
2013-08-04 17:04:00,86.4,76.0,29.91,NNW,337,0.0,3.0,71,0.00,,,0.00,241,weatherlink.com 1.10,2013-08-04 21:04:00,
2013-08-04 17:19:00,85.5,76.0,29.91,NNW,337,0.0,1.0,73,0.00,,,0.00,206,weatherlink.com 1.10,2013-08-04 21:19:00,
2013-08-04 17:34:00,86.0,76.0,29.91,NW,314,0.0,1.0,73,0.00,,,0.00,399,weatherlink.com 1.10,2013-08-04 21:34:00,
2013-08-04 17:49:00,86.0,76.0,29.91,NW,314,0.0,1.0,71,0.00,,,0.00,251,weatherlink.com 1.10,2013-08-04 21:49:00,
2013-08-04 18:04:00,85.5,76.0,29.91,North,5,0.0,1.0,72,0.00,,,0.00,86,weatherlink.com 1.10,2013-08-04 22:04:00,
2013-08-04 18:19:00,84.4,76.0,29.91,North,360,0.0,0.0,76,0.00,,,0.00,53,weatherlink.com 1.10,2013-08-04 22:19:00,
2013-08-04 18:34:00,83.5,77.0,29.91,North,360,0.0,0.0,80,0.00,,,0.00,39,weatherlink.com 1.10,2013-08-04 22:34:00,
2013-08-04 18:49:00,83.6,77.0,29.92,North,360,0.0,0.0,80,0.00,,,0.00,42,weatherlink.com 1.10,2013-08-04 22:49:00,
2013-08-04 19:04:00,83.5,76.0,29.91,North,360,0.0,0.0,79,0.00,,,0.00,42,weatherlink.com 1.10,2013-08-04 23:04:00,
2013-08-04 19:19:00,83.6,78.0,29.92,East,81,0.0,0.0,82,0.00,,,0.00,32,weatherlink.com 1.10,2013-08-04 23:19:00,
2013-08-04 19:34:00,81.0,77.0,29.93,East,80,0.0,0.0,87,0.00,,,0.00,19,weatherlink.com 1.10,2013-08-04 23:34:00,
2013-08-04 19:49:00,79.8,77.0,29.94,ESE,115,0.0,1.0,90,0.00,,,0.00,9,weatherlink.com 1.10,2013-08-04 23:49:00,
2013-08-04 20:04:00,78.7,76.0,29.94,ESE,115,0.0,0.0,90,0.01,,,0.01,9,weatherlink.com 1.10,2013-08-05 00:04:00,
2013-08-04 20:19:00,78.1,75.0,29.94,ESE,116,0.0,0.0,91,0.01,,,0.01,0,weatherlink.com 1.10,2013-08-05 00:19:00,
2013-08-04 20:34:00,77.9,76.0,29.94,ESE,116,0.0,1.0,92,0.01,,,0.01,0,weatherlink.com 1.10,2013-08-05 00:34:00,
2013-08-04 20:49:00,77.7,75.0,29.94,ESE,115,0.0,1.0,92,0.01,,,0.01,0,weatherlink.com 1.10,2013-08-05 00:49:00,
2013-08-04 21:04:00,77.7,75.0,29.95,SE,139,0.0,5.0,91,0.00,,,0.01,0,weatherlink.com 1.10,2013-08-05 01:04:00,
2013-08-04 21:19:00,79.1,75.0,29.95,SE,145,0.0,1.0,87,0.00,,,0.01,0,weatherlink.com 1.10,2013-08-05 01:19:00,
2013-08-04 21:34:00,80.3,74.0,29.96,NE,50,0.0,9.0,80,0.00,,,0.01,0,weatherlink.com 1.10,2013-08-05 01:34:00,
2013-08-04 21:49:00,80.8,72.0,29.95,ESE,106,0.0,6.0,74,0.00,,,0.01,0,weatherlink.com 1.10,2013-08-05 01:49:00,
2013-08-04 22:04:00,80.2,74.0,29.98,SW,214,0.0,4.0,80,0.00,,,0.01,0,weatherlink.com 1.10,2013-08-05 02:04:00,
2013-08-04 22:19:00,78.9,74.0,29.98,SW,214,0.0,1.0,86,0.00,,,0.01,0,weatherlink.com 1.10,2013-08-05 02:19:00,
2013-08-04 22:34:00,78.4,74.0,29.99,SW,221,0.0,1.0,86,0.00,,,0.01,0,weatherlink.com 1.10,2013-08-05 02:34:00,
2013-08-04 22:49:00,77.7,73.0,30.00,SW,222,0.0,3.0,86,0.00,,,0.01,0,weatherlink.com 1.10,2013-08-05 02:49:00,
2013-08-04 23:04:00,77.0,73.0,29.99,SW,222,0.0,1.0,87,0.00,,,0.01,0,weatherlink.com 1.10,2013-08-05 03:04:00,
2013-08-04 23:19:00,77.0,73.0,29.99,SSW,205,0.0,1.0,86,0.00,,,0.01,0,weatherlink.com 1.10,2013-08-05 03:19:00,
2013-08-04 23:34:00,77.3,72.0,29.99,SSW,199,0.0,4.0,84,0.00,,,0.01,0,weatherlink.com 1.10,2013-08-05 03:34:00,
2013-08-04 23:49:00,77.5,72.0,29.99,East,94,0.0,4.0,82,0.00,,,0.01,0,weatherlink.com 1.10,2013-08-05 03:49:00,